Terminal Aerodrome Forecast
Issued by NWS Charleston, WV

Current Version | Previous Version | Text Only | Print | Product List | Glossary Off
Versions: 1 2 3 4 5 6 7 8 9 10 11 12 13 14 15 16 17 18 19 20 21 22 23 24 25 26 27

174
FTUS41 KRLX 252320
TAFPKB
TAF
KPKB 252320Z 2600/2624 VRB03KT P6SM FEW070 BKN200
     FM261200 00000KT P6SM -SHRA OVC050
     FM261500 16008KT P6SM BKN100=

USA.gov is the U.S. government's official web portal to all federal, state and local government web resources and services.